Katowice, Poland
Current Conditions -  °F | °C
As of 4:30 PM on Monday 22 Dec 2014 (Local Time) from EPKT Reporting Station
Light Rain Light Rain  
Wind Chill: 35°   Ceiling: 2100
Heat Index: 43°   Visibility: 6mi
Dew Point: 39°   Wind: 15mph
Humidity: 87%   Direction: 230°SW
Pressure: 29.83"   Gusts: NA
Location:  50.26°N, 19.02°E
Report Text: EPKT 221430Z 23013KT 9999 -RA FEW013 BKN021 06/04 Q1010
Loading
Personal Weather Stations






























Interactive Weather Map New forecast layout! Learn more

10-Day Weather Forecast

Advertisements
Track Severe Weather on mobile